Time;durP1;ratioP1;P1;durP2;ratioP2;P2;SDS_P1;SDS_P2;PMS_P1;PMS_P2;Temp;Humidity;BMP_temperature;BMP_pressure;BME280_temperature;BME280_humidity;BME280_pressure;Samples;Min_cycle;Max_cycle;Signal;HPM_P1;HPM_P2
2022/04/08 00:01:55;;;;;;;3.90;1.17;;;8.80;22.10;;;;;;5093215;27;36182;-76
2022/04/08 00:04:21;;;;;;;5.82;1.50;;;8.70;21.80;;;;;;5109517;27;34114;-77
2022/04/08 00:06:47;;;;;;;5.28;1.25;;;8.70;21.90;;;;;;5128757;27;34064;-78
2022/04/08 00:09:12;;;;;;;7.63;1.45;;;8.70;22.50;;;;;;5093281;27;34503;-77
2022/04/08 00:11:38;;;;;;;2.50;1.00;;;8.70;22.00;;;;;;5109172;27;35570;-77
2022/04/08 00:14:04;;;;;;;6.18;1.35;;;8.70;22.70;;;;;;5128587;27;34038;-78
2022/04/08 00:16:30;;;;;;;4.45;1.40;;;8.70;22.00;;;;;;5092251;27;34118;-77
2022/04/08 00:18:56;;;;;;;6.90;1.40;;;8.70;22.10;;;;;;5109000;27;34012;-77
2022/04/08 00:21:25;;;;;;;2.72;1.02;;;8.70;22.20;;;;;;5092179;27;35896;-77
2022/04/08 00:23:52;;;;;;;3.03;1.25;;;8.60;23.20;;;;;;5094040;27;34105;-79
2022/04/08 00:26:18;;;;;;;2.92;1.15;;;8.60;22.80;;;;;;5092588;27;34215;-76
2022/04/08 00:28:45;;;;;;;6.40;1.17;;;8.60;22.70;;;;;;5109362;27;34352;-77
2022/04/08 00:31:12;;;;;;;10.23;1.38;;;8.60;22.50;;;;;;5109266;27;34129;-78
2022/04/08 00:33:38;;;;;;;4.13;1.10;;;8.60;22.70;;;;;;5109220;27;34309;-76
2022/04/08 00:36:04;;;;;;;4.20;1.23;;;8.60;22.90;;;;;;5108980;27;34238;-77
2022/04/08 00:38:30;;;;;;;3.47;0.80;;;8.60;22.70;;;;;;5092422;27;34427;-77
2022/04/08 00:40:56;;;;;;;2.25;1.17;;;8.60;22.50;;;;;;5093131;27;36301;-78
2022/04/08 00:43:34;;;;;;;3.33;1.20;;;8.60;22.90;;;;;;5108875;27;34190;-77
2022/04/08 00:46:01;;;;;;;5.22;1.20;;;8.60;23.90;;;;;;5109119;27;34166;-78
2022/04/08 00:48:28;;;;;;;7.10;1.33;;;8.50;23.30;;;;;;5108943;27;34348;-78
2022/04/08 00:50:54;;;;;;;5.07;1.50;;;8.40;24.10;;;;;;5108594;27;35599;-77
2022/04/08 00:53:21;;;;;;;4.47;1.20;;;8.40;23.40;;;;;;5091480;27;34219;-77
2022/04/08 00:55:47;;;;;;;6.50;1.70;;;8.40;23.30;;;;;;5108455;27;34170;-77
2022/04/08 00:58:14;;;;;;;4.38;1.20;;;8.40;23.40;;;;;;5127338;27;33976;-77
2022/04/08 01:00:42;;;;;;;3.47;1.20;;;8.40;23.60;;;;;;5108936;27;36576;-77
2022/04/08 01:03:08;;;;;;;2.80;1.10;;;8.40;24.20;;;;;;5108246;27;34210;-77
2022/04/08 01:05:35;;;;;;;4.88;0.93;;;8.40;23.60;;;;;;5075038;27;34199;-77
2022/04/08 01:08:03;;;;;;;6.15;1.20;;;8.40;23.50;;;;;;5127623;27;34270;-78
2022/04/08 01:10:29;;;;;;;7.72;1.42;;;8.40;23.90;;;;;;5126696;27;34150;-79
2022/04/08 01:12:55;;;;;;;2.83;1.10;;;8.40;23.70;;;;;;5109012;27;34403;-77
2022/04/08 01:15:23;;;;;;;6.32;1.35;;;8.40;23.80;;;;;;5108422;27;34265;-78
2022/04/08 01:17:49;;;;;;;8.95;1.58;;;8.40;23.90;;;;;;5090949;27;34267;-77
2022/04/08 01:20:16;;;;;;;4.70;1.20;;;8.40;23.80;;;;;;5091343;27;35822;-78
2022/04/08 01:22:43;;;;;;;9.10;1.40;;;8.40;23.90;;;;;;5091144;27;34384;-76
2022/04/08 01:25:10;;;;;;;1.90;1.15;;;8.30;24.10;;;;;;5108035;27;34000;-77
2022/04/08 01:27:38;;;;;;;3.55;0.98;;;8.30;24.10;;;;;;5091406;27;34436;-77
2022/04/08 01:30:07;;;;;;;6.15;1.23;;;8.30;24.20;;;;;;5107999;27;35733;-77
2022/04/08 01:32:33;;;;;;;8.23;1.67;;;8.40;25.80;;;;;;5090705;27;34310;-77
2022/04/08 01:35:00;;;;;;;10.07;1.55;;;8.40;24.50;;;;;;5108233;27;34070;-77
2022/04/08 01:37:26;;;;;;;4.25;0.98;;;8.40;24.40;;;;;;5108185;27;34063;-78
2022/04/08 01:39:52;;;;;;;6.68;1.30;;;8.40;24.40;;;;;;5107542;27;35468;-77
2022/04/08 01:42:24;;;;;;;2.58;0.98;;;8.40;24.70;;;;;;5126146;27;34068;-77
2022/04/08 01:44:52;;;;;;;3.28;1.27;;;8.50;24.60;;;;;;5126264;27;34211;-77
2022/04/08 01:47:18;;;;;;;3.58;1.10;;;8.50;24.70;;;;;;5091223;27;34543;-77
2022/04/08 01:49:44;;;;;;;5.22;1.38;;;8.50;24.60;;;;;;5107939;27;35613;-77
2022/04/08 01:52:11;;;;;;;4.53;1.02;;;8.50;24.90;;;;;;5126528;27;34420;-78
2022/04/08 01:54:37;;;;;;;6.50;1.42;;;8.50;24.70;;;;;;5107647;27;34183;-77
2022/04/08 01:57:03;;;;;;;5.47;1.20;;;8.50;24.70;;;;;;5107290;27;34333;-78
2022/04/08 01:59:29;;;;;;;11.30;1.23;;;8.50;25.40;;;;;;5125799;27;34976;-77
2022/04/08 02:01:54;;;;;;;3.90;1.27;;;8.50;25.10;;;;;;5108711;27;34593;-77
2022/04/08 02:04:21;;;;;;;5.40;1.30;;;8.50;24.90;;;;;;5108761;27;34372;-77
2022/04/08 02:06:47;;;;;;;5.22;1.17;;;8.50;24.90;;;;;;5107409;27;34057;-77
2022/04/08 02:09:13;;;;;;;3.72;1.10;;;8.50;24.90;;;;;;5073369;27;35784;-78
2022/04/08 02:11:39;;;;;;;8.95;1.25;;;8.40;24.90;;;;;;5107650;27;34178;-77
2022/04/08 02:14:05;;;;;;;4.55;1.02;;;8.40;25.20;;;;;;5125713;27;34404;-77
2022/04/08 02:16:31;;;;;;;3.20;1.05;;;8.40;25.20;;;;;;5090951;27;34233;-78
2022/04/08 02:18:58;;;;;;;7.43;1.45;;;8.40;25.10;;;;;;5106820;27;35826;-78
2022/04/08 02:21:24;;;;;;;5.35;1.30;;;8.30;25.30;;;;;;5107503;27;34092;-78
2022/04/08 02:23:51;;;;;;;5.82;1.15;;;8.30;25.40;;;;;;5106977;27;34196;-78
2022/04/08 02:26:18;;;;;;;4.03;1.13;;;8.30;25.70;;;;;;5090394;27;34086;-77
2022/04/08 02:28:44;;;;;;;2.28;1.00;;;8.20;25.50;;;;;;5125142;27;35238;-77
2022/04/08 02:31:11;;;;;;;3.67;1.30;;;8.20;25.70;;;;;;5090417;27;34122;-77
2022/04/08 02:33:37;;;;;;;5.90;1.08;;;8.10;25.70;;;;;;5106813;27;34249;-77
2022/04/08 02:36:04;;;;;;;5.82;1.30;;;8.00;26.00;;;;;;5090064;27;34202;-77
2022/04/08 02:38:30;;;;;;;7.53;1.48;;;8.00;26.00;;;;;;5107002;27;35745;-77
2022/04/08 02:40:56;;;;;;;2.15;1.05;;;8.00;26.10;;;;;;5107208;27;34423;-77
2022/04/08 02:43:22;;;;;;;5.28;1.48;;;8.00;26.50;;;;;;5107438;27;34087;-77
2022/04/08 02:45:49;;;;;;;8.52;1.67;;;8.00;26.20;;;;;;5107269;27;34333;-77
2022/04/08 02:48:15;;;;;;;8.05;1.20;;;7.90;26.30;;;;;;5107195;27;36357;-78
2022/04/08 02:50:41;;;;;;;6.13;1.35;;;7.90;26.20;;;;;;5106989;27;34174;-77
2022/04/08 02:53:07;;;;;;;5.78;1.65;;;7.90;26.50;;;;;;5124856;27;34273;-78
2022/04/08 02:55:35;;;;;;;6.13;1.40;;;7.80;26.40;;;;;;5125353;27;34223;-77
2022/04/08 02:58:01;;;;;;;3.83;1.20;;;7.80;26.80;;;;;;5106493;27;35971;-77
2022/04/08 03:00:28;;;;;;;4.05;1.25;;;7.80;26.70;;;;;;5124749;27;34351;-78
2022/04/08 03:02:54;;;;;;;4.35;1.35;;;7.80;26.70;;;;;;5106381;27;34134;-77
2022/04/08 03:05:20;;;;;;;6.30;1.42;;;7.80;26.80;;;;;;5125322;27;34146;-79
2022/04/08 03:07:46;;;;;;;3.38;1.40;;;7.80;27.00;;;;;;5106389;27;36530;-77
2022/04/08 03:10:12;;;;;;;4.30;1.00;;;7.70;26.90;;;;;;5106530;27;34183;-78
2022/04/08 03:12:38;;;;;;;4.50;1.30;;;7.70;27.00;;;;;;5089681;27;34278;-77
2022/04/08 03:15:05;;;;;;;4.95;1.58;;;7.70;26.90;;;;;;5105914;27;34111;-77
2022/04/08 03:17:31;;;;;;;4.28;1.23;;;7.60;27.00;;;;;;5089686;27;35770;-77
2022/04/08 03:19:57;;;;;;;2.45;1.13;;;7.60;27.20;;;;;;5106337;27;34044;-77
2022/04/08 03:22:24;;;;;;;6.68;1.20;;;7.50;27.30;;;;;;5106934;27;34054;-77
2022/04/08 03:24:51;;;;;;;2.17;1.00;;;7.40;27.30;;;;;;5106714;27;34165;-77
2022/04/08 03:27:18;;;;;;;5.03;1.08;;;7.30;27.60;;;;;;5072447;27;35523;-78
2022/04/08 03:29:45;;;;;;;6.28;1.60;;;7.30;27.80;;;;;;5106232;27;34247;-78
2022/04/08 03:32:11;;;;;;;3.33;1.30;;;7.20;27.90;;;;;;5106253;27;34118;-78
2022/04/08 03:34:37;;;;;;;4.85;1.10;;;7.20;28.20;;;;;;5106346;27;33957;-77
2022/04/08 03:37:04;;;;;;;5.90;1.40;;;7.10;28.70;;;;;;5108785;27;36071;-77
2022/04/08 03:39:30;;;;;;;6.40;1.23;;;7.00;28.50;;;;;;5093235;27;34238;-78
2022/04/08 03:41:56;;;;;;;3.25;1.23;;;7.00;28.60;;;;;;5092844;27;34187;-77
2022/04/08 03:44:22;;;;;;;6.07;1.65;;;6.90;29.00;;;;;;5110397;27;34102;-77
2022/04/08 03:46:49;;;;;;;5.65;1.30;;;6.90;29.80;;;;;;5109205;27;36180;-78
2022/04/08 03:49:15;;;;;;;4.55;1.48;;;6.90;29.70;;;;;;5109676;27;34075;-78
2022/04/08 03:51:42;;;;;;;5.47;1.48;;;6.80;30.20;;;;;;5092643;27;34663;-77
2022/04/08 03:54:09;;;;;;;3.35;1.30;;;6.80;30.50;;;;;;5127649;27;33967;-78
2022/04/08 03:56:36;;;;;;;8.43;1.60;;;6.90;30.30;;;;;;5092826;27;35791;-77
2022/04/08 03:59:02;;;;;;;8.18;1.85;;;6.90;30.50;;;;;;5127806;27;34177;-77
2022/04/08 04:01:28;;;;;;;5.45;1.40;;;6.90;30.70;;;;;;5109850;27;34159;-77
2022/04/08 04:03:54;;;;;;;4.43;1.58;;;6.90;30.80;;;;;;5109407;27;34264;-77
2022/04/08 04:06:20;;;;;;;4.57;1.10;;;6.90;31.00;;;;;;5127927;27;34285;-77
2022/04/08 04:08:46;;;;;;;7.13;1.40;;;6.90;31.00;;;;;;5109855;27;34175;-77
2022/04/08 04:11:15;;;;;;;9.00;1.10;;;6.90;31.20;;;;;;5109453;27;34120;-78
2022/04/08 04:13:42;;;;;;;4.05;1.23;;;6.90;31.30;;;;;;5127872;27;34112;-77
2022/04/08 04:16:08;;;;;;;7.47;1.55;;;6.90;31.70;;;;;;5109011;27;36073;-77
2022/04/08 04:18:34;;;;;;;7.30;1.00;;;6.90;31.20;;;;;;5109131;27;34123;-77
2022/04/08 04:21:00;;;;;;;4.75;1.30;;;6.90;31.10;;;;;;5108762;27;34688;-77
2022/04/08 04:23:26;;;;;;;3.70;1.30;;;6.90;31.30;;;;;;5127754;27;34345;-78
2022/04/08 04:25:52;;;;;;;5.97;1.58;;;6.90;31.60;;;;;;5109247;27;35061;-78
2022/04/08 04:28:17;;;;;;;8.73;1.40;;;6.90;31.60;;;;;;5109465;27;34457;-77
2022/04/08 04:30:43;;;;;;;4.95;1.52;;;6.90;31.90;;;;;;5108930;27;34251;-78
2022/04/08 04:33:10;;;;;;;4.38;0.90;;;6.90;32.00;;;;;;5108489;27;34154;-78
2022/04/08 04:35:37;;;;;;;8.05;1.20;;;6.90;32.00;;;;;;5109103;27;35835;-78
2022/04/08 04:38:03;;;;;;;7.72;1.58;;;6.90;32.60;;;;;;5108950;27;34090;-78
2022/04/08 04:40:29;;;;;;;3.47;1.30;;;6.90;32.20;;;;;;5091876;27;34245;-77
2022/04/08 04:42:56;;;;;;;4.75;1.45;;;7.00;32.10;;;;;;5108551;27;34045;-77
2022/04/08 04:45:22;;;;;;;9.15;1.38;;;7.00;32.40;;;;;;5108646;27;35943;-77
2022/04/08 04:47:49;;;;;;;1.98;0.80;;;7.00;32.20;;;;;;5107994;27;34080;-77
2022/04/08 04:50:15;;;;;;;5.75;1.20;;;7.00;32.50;;;;;;5108334;27;34218;-78
2022/04/08 04:52:41;;;;;;;5.30;1.23;;;7.00;32.50;;;;;;5127294;27;34128;-77
2022/04/08 04:55:07;;;;;;;5.03;1.70;;;7.00;32.30;;;;;;5126484;27;34347;-77
2022/04/08 04:57:34;;;;;;;4.35;1.30;;;7.10;32.50;;;;;;5091527;27;34270;-77
2022/04/08 05:00:00;;;;;;;4.07;1.20;;;7.10;32.30;;;;;;5126442;27;34144;-77
2022/04/08 05:02:26;;;;;;;6.05;1.10;;;7.10;32.60;;;;;;5108928;27;34151;-78
2022/04/08 05:04:52;;;;;;;2.65;1.00;;;7.10;32.40;;;;;;5108026;27;36522;-77
2022/04/08 05:07:18;;;;;;;4.82;1.60;;;7.10;32.50;;;;;;5126770;27;34264;-77
2022/04/08 05:09:44;;;;;;;6.05;1.45;;;7.10;32.50;;;;;;5090953;27;34396;-77
2022/04/08 05:12:10;;;;;;;4.13;1.40;;;7.10;32.80;;;;;;5108294;27;34080;-77
2022/04/08 05:14:36;;;;;;;8.88;1.65;;;7.10;32.80;;;;;;5108202;27;36288;-78
2022/04/08 05:17:03;;;;;;;2.65;1.17;;;7.20;32.90;;;;;;5126737;27;34185;-77
2022/04/08 05:19:29;;;;;;;3.97;1.17;;;7.20;33.20;;;;;;5126557;27;34292;-77
2022/04/08 05:21:55;;;;;;;6.00;1.40;;;7.20;32.90;;;;;;5107859;27;34012;-78
2022/04/08 05:24:21;;;;;;;4.30;1.17;;;7.30;33.00;;;;;;5108079;27;35819;-77
2022/04/08 05:26:47;;;;;;;3.22;1.10;;;7.30;32.80;;;;;;5108022;27;34171;-77
2022/04/08 05:29:13;;;;;;;6.85;1.30;;;7.30;32.80;;;;;;5091156;27;33982;-78
2022/04/08 05:31:39;;;;;;;5.35;1.50;;;7.40;32.60;;;;;;5107497;27;34069;-78
2022/04/08 05:34:05;;;;;;;4.53;1.10;;;7.40;32.70;;;;;;5107139;27;35831;-78
2022/04/08 05:36:31;;;;;;;3.97;1.63;;;7.40;32.80;;;;;;5091011;27;34219;-77
2022/04/08 05:38:57;;;;;;;4.50;1.55;;;7.50;32.80;;;;;;5108016;27;34126;-78
2022/04/08 05:41:23;;;;;;;6.75;1.55;;;7.50;32.70;;;;;;5108128;27;34225;-78
2022/04/08 05:43:49;;;;;;;4.43;1.30;;;7.50;32.70;;;;;;5090295;27;35761;-77
2022/04/08 05:46:16;;;;;;;4.28;1.20;;;7.60;32.80;;;;;;5108115;27;34441;-77
2022/04/08 05:48:42;;;;;;;4.57;1.25;;;7.60;32.80;;;;;;5107848;27;34216;-77
2022/04/08 05:51:08;;;;;;;9.20;1.55;;;7.60;33.10;;;;;;5107815;27;34065;-77
2022/04/08 05:53:34;;;;;;;5.53;1.45;;;7.70;32.90;;;;;;5107209;27;35976;-78
2022/04/08 05:56:02;;;;;;;4.45;1.40;;;7.70;32.80;;;;;;5107440;27;34339;-78
2022/04/08 05:58:28;;;;;;;3.50;1.38;;;7.80;32.90;;;;;;5107140;27;34189;-78
2022/04/08 06:00:54;;;;;;;4.88;0.98;;;7.90;32.90;;;;;;5108132;27;34149;-78
2022/04/08 06:03:20;;;;;;;5.13;1.35;;;7.90;32.90;;;;;;5107958;27;34479;-77
2022/04/08 06:05:46;;;;;;;6.63;1.20;;;7.90;32.70;;;;;;5125996;27;34253;-77
2022/04/08 06:08:12;;;;;;;6.20;1.40;;;7.90;32.90;;;;;;5123077;27;34120;-77
2022/04/08 06:10:38;;;;;;;6.35;1.42;;;7.90;33.10;;;;;;5090586;27;34556;-77
2022/04/08 06:13:05;;;;;;;7.32;1.50;;;8.00;32.70;;;;;;5106973;27;34747;-77
2022/04/08 06:15:31;;;;;;;3.17;1.00;;;8.00;33.40;;;;;;5090651;27;34261;-77
2022/04/08 06:17:58;;;;;;;6.57;1.42;;;8.00;32.90;;;;;;5096851;28;34044;-77
2022/04/08 06:20:24;;;;;;;5.47;1.25;;;8.10;32.90;;;;;;5087480;28;33791;-77
2022/04/08 06:22:52;;;;;;;7.57;1.50;;;8.10;32.80;;;;;;5085979;28;35926;-77
2022/04/08 06:25:20;;;;;;;5.15;1.40;;;8.20;32.80;;;;;;5070672;28;34198;-78
2022/04/08 06:27:56;;;;;;;7.82;1.40;;;8.20;33.30;;;;;;5086344;28;34191;-77
2022/04/08 06:30:23;;;;;;;6.53;1.55;;;8.30;33.90;;;;;;5097866;27;34240;-77
2022/04/08 06:32:50;;;;;;;7.07;1.35;;;8.30;32.80;;;;;;5124475;27;34962;-78
2022/04/08 06:35:16;;;;;;;4.07;1.20;;;8.30;32.90;;;;;;5107647;27;34466;-78
2022/04/08 06:37:43;;;;;;;7.13;1.52;;;8.40;32.60;;;;;;5104718;27;34289;-78
2022/04/08 06:40:11;;;;;;;2.22;0.85;;;8.40;32.60;;;;;;5095523;27;34240;-77
2022/04/08 06:42:38;;;;;;;4.88;1.50;;;8.40;32.90;;;;;;5107492;27;34513;-77
2022/04/08 06:45:06;;;;;;;4.53;1.33;;;8.50;32.80;;;;;;5089509;27;34144;-78
2022/04/08 06:47:32;;;;;;;3.63;1.42;;;8.50;33.00;;;;;;5089979;27;34397;-78
2022/04/08 06:49:58;;;;;;;8.70;1.65;;;8.50;32.60;;;;;;5106856;27;34505;-78
2022/04/08 06:52:25;;;;;;;6.30;1.30;;;8.50;32.70;;;;;;5107033;27;35541;-77
2022/04/08 06:54:51;;;;;;;5.07;1.38;;;8.60;33.00;;;;;;5106811;27;34143;-77
2022/04/08 06:57:17;;;;;;;5.53;1.60;;;8.70;32.80;;;;;;5089839;27;34143;-77
2022/04/08 06:59:44;;;;;;;5.85;1.60;;;8.70;32.70;;;;;;5106596;27;34330;-77
2022/04/08 07:02:10;;;;;;;8.95;1.50;;;8.80;32.70;;;;;;5106092;27;36310;-77
2022/04/08 07:04:36;;;;;;;5.55;1.40;;;8.80;32.50;;;;;;5120569;27;34233;-78
2022/04/08 07:07:05;;;;;;;5.72;1.50;;;8.80;32.40;;;;;;5088724;27;34456;-78
2022/04/08 07:09:33;;;;;;;4.95;1.35;;;8.80;32.50;;;;;;5081456;27;34169;-77
2022/04/08 07:12:00;;;;;;;14.77;1.55;;;8.90;32.50;;;;;;5106253;27;34926;-77
2022/04/08 07:14:27;;;;;;;6.60;1.55;;;8.90;32.30;;;;;;5106207;27;34083;-77
2022/04/08 07:16:53;;;;;;;6.30;1.52;;;8.90;32.30;;;;;;5086671;27;34184;-77
2022/04/08 07:19:19;;;;;;;6.95;1.80;;;9.00;32.20;;;;;;5102046;28;34237;-77
2022/04/08 07:21:45;;;;;;;6.78;1.67;;;9.00;32.40;;;;;;5068759;28;35640;-77
2022/04/08 07:24:11;;;;;;;7.40;1.45;;;9.00;32.30;;;;;;5086343;27;34139;-78
2022/04/08 07:26:37;;;;;;;3.58;1.30;;;9.00;32.40;;;;;;5088553;27;34210;-77
2022/04/08 07:29:03;;;;;;;6.25;1.77;;;9.00;32.40;;;;;;5112053;27;34364;-77
2022/04/08 07:31:29;;;;;;;6.85;1.52;;;9.00;32.30;;;;;;5120577;27;35553;-77
2022/04/08 07:33:55;;;;;;;5.15;1.33;;;9.00;32.20;;;;;;5102545;28;33994;-77
2022/04/08 07:36:21;;;;;;;7.65;1.90;;;9.10;32.20;;;;;;5107093;27;34376;-78
2022/04/08 07:38:47;;;;;;;9.75;1.50;;;9.00;32.40;;;;;;5106542;27;34360;-78
2022/04/08 07:41:13;;;;;;;5.63;1.80;;;9.10;32.50;;;;;;5105975;27;35637;-78
2022/04/08 07:43:39;;;;;;;5.45;1.63;;;9.10;32.40;;;;;;5106646;27;34306;-77
2022/04/08 07:46:05;;;;;;;6.40;1.65;;;9.10;32.50;;;;;;5072080;27;34506;-77
2022/04/08 07:48:32;;;;;;;5.97;1.60;;;9.20;32.20;;;;;;5106942;27;34233;-78
2022/04/08 07:50:58;;;;;;;3.05;1.38;;;9.20;32.30;;;;;;5099114;27;35733;-77
2022/04/08 07:53:24;;;;;;;7.97;1.80;;;9.20;32.30;;;;;;5117488;27;34796;-77
2022/04/08 07:55:50;;;;;;;5.60;1.60;;;9.20;32.30;;;;;;5089584;27;34295;-77
2022/04/08 07:58:16;;;;;;;10.45;1.50;;;9.20;32.50;;;;;;5105953;27;34438;-77
2022/04/08 08:00:42;;;;;;;4.07;1.50;;;9.20;32.50;;;;;;5105923;27;35698;-77
2022/04/08 08:03:07;;;;;;;6.78;1.35;;;9.20;32.50;;;;;;5088719;27;34138;-78
2022/04/08 08:05:33;;;;;;;6.97;1.60;;;9.20;32.40;;;;;;5106186;27;34329;-78
2022/04/08 08:08:01;;;;;;;4.75;1.55;;;9.20;32.30;;;;;;5105461;27;34472;-77
2022/04/08 08:10:29;;;;;;;6.55;1.60;;;9.20;32.80;;;;;;5089700;27;34359;-78
2022/04/08 08:12:57;;;;;;;5.15;1.42;;;9.20;32.80;;;;;;5106156;27;34028;-77
2022/04/08 08:15:24;;;;;;;5.45;1.55;;;9.20;32.90;;;;;;5089977;27;34206;-78
2022/04/08 08:17:51;;;;;;;4.88;1.40;;;9.10;33.00;;;;;;5088808;27;34294;-78
2022/04/08 08:20:20;;;;;;;8.35;1.73;;;9.10;33.60;;;;;;5105613;27;36873;-77
2022/04/08 08:22:47;;;;;;;5.43;1.38;;;9.00;34.40;;;;;;5108614;27;34075;-78
2022/04/08 08:25:13;;;;;;;4.28;1.38;;;9.00;33.70;;;;;;5092260;27;34096;-77
2022/04/08 08:27:42;;;;;;;5.97;1.48;;;8.90;33.60;;;;;;5100728;28;34668;-78
2022/04/08 08:30:11;;;;;;;2.67;0.80;;;8.90;33.90;;;;;;5088875;28;35471;-79
2022/04/08 08:32:38;;;;;;;4.10;1.20;;;8.90;34.00;;;;;;5055095;28;34272;-78
2022/04/08 08:35:10;;;;;;;2.67;0.85;;;8.80;33.50;;;;;;5088371;28;34409;-78
2022/04/08 08:37:36;;;;;;;2.55;1.00;;;8.80;33.60;;;;;;5088747;28;34083;-78
2022/04/08 08:40:04;;;;;;;2.85;1.20;;;8.80;33.20;;;;;;5088703;28;35142;-78
2022/04/08 08:42:32;;;;;;;2.90;0.93;;;8.80;33.60;;;;;;5088376;28;34297;-78
2022/04/08 08:44:58;;;;;;;2.70;1.15;;;8.80;33.50;;;;;;5106836;28;34180;-78
2022/04/08 08:47:27;;;;;;;4.55;1.20;;;8.80;33.40;;;;;;5105620;28;34351;-77
2022/04/08 08:49:55;;;;;;;2.60;1.25;;;8.80;33.90;;;;;;5087784;28;35747;-77
2022/04/08 08:52:22;;;;;;;3.28;1.10;;;8.70;33.90;;;;;;5072454;28;34174;-77
2022/04/08 08:54:48;;;;;;;3.72;1.13;;;8.50;34.10;;;;;;5088239;28;34161;-77
2022/04/08 08:57:16;;;;;;;2.10;0.55;;;8.50;34.00;;;;;;5088086;28;34171;-76
2022/04/08 09:02:27;;;;;;;3.22;0.93;;;8.40;34.40;;;;;;5105500;28;34091;-77
2022/04/08 09:04:53;;;;;;;2.00;0.80;;;8.40;34.50;;;;;;5095768;27;34106;-77
2022/04/08 09:07:24;;;;;;;4.13;0.90;;;8.40;34.70;;;;;;5108357;27;34831;-76
2022/04/08 09:09:53;;;;;;;3.58;1.10;;;8.50;35.80;;;;;;5126159;27;34482;-77
2022/04/08 09:12:22;;;;;;;1.23;1.05;;;8.50;35.60;;;;;;5091487;27;34241;-77
2022/04/08 09:14:50;;;;;;;1.60;0.60;;;8.50;34.70;;;;;;5105740;27;34323;-77
2022/04/08 09:17:18;;;;;;;2.45;0.80;;;8.60;34.70;;;;;;5089153;28;34458;-77
2022/04/08 09:19:48;;;;;;;2.42;0.82;;;8.60;34.50;;;;;;5087437;28;36270;-77
2022/04/08 09:22:15;;;;;;;1.38;0.60;;;8.60;34.50;;;;;;5087589;28;34145;-77
2022/04/08 09:24:41;;;;;;;1.23;0.70;;;8.60;34.30;;;;;;5088085;28;34131;-77
2022/04/08 09:27:07;;;;;;;1.13;0.70;;;8.60;34.40;;;;;;5105965;28;34415;-77
2022/04/08 09:29:34;;;;;;;4.38;0.80;;;8.60;34.40;;;;;;5121620;27;36127;-77
2022/04/08 09:32:07;;;;;;;1.35;0.90;;;8.50;34.40;;;;;;5053501;28;34188;-77
2022/04/08 09:34:33;;;;;;;1.83;0.93;;;8.60;34.70;;;;;;5087838;28;34103;-77
2022/04/08 09:37:07;;;;;;;2.70;0.88;;;8.50;34.60;;;;;;5121629;27;34426;-77
2022/04/08 09:39:33;;;;;;;2.45;0.73;;;8.50;35.50;;;;;;5086854;28;35535;-77
2022/04/08 09:42:03;;;;;;;1.17;0.88;;;8.50;34.70;;;;;;5070556;28;34064;-76
2022/04/08 09:44:29;;;;;;;1.40;0.80;;;8.50;35.00;;;;;;5104913;27;34134;-76
2022/04/08 09:46:55;;;;;;;2.13;0.85;;;8.50;34.80;;;;;;5121099;27;34525;-76
2022/04/08 09:49:21;;;;;;;5.65;0.88;;;8.40;35.00;;;;;;5053622;28;35631;-76
2022/04/08 09:51:51;;;;;;;1.30;0.68;;;8.50;35.20;;;;;;5087266;28;34168;-76
2022/04/08 09:54:21;;;;;;;3.42;0.70;;;8.50;35.70;;;;;;5087159;28;34182;-76
2022/04/08 09:56:48;;;;;;;1.15;0.75;;;8.50;35.80;;;;;;5053772;28;34123;-76
2022/04/08 09:59:20;;;;;;;2.25;0.50;;;8.60;35.70;;;;;;5087481;28;34449;-76
2022/04/08 10:01:47;;;;;;;1.08;0.52;;;8.50;35.90;;;;;;5105197;28;34149;-76
2022/04/08 10:04:13;;;;;;;0.70;0.60;;;8.60;35.80;;;;;;5087026;28;34083;-76
2022/04/08 10:06:41;;;;;;;0.93;0.50;;;8.50;35.50;;;;;;5105077;28;34045;-76
2022/04/08 10:09:10;;;;;;;1.08;0.60;;;8.50;35.70;;;;;;5082339;28;36429;-76
2022/04/08 10:12:11;;;;;;;0.95;0.40;;;8.50;36.00;;;;;;5099250;28;34870;-76
2022/04/08 10:14:56;;;;;;;3.45;0.60;;;8.50;37.00;;;;;;5025053;28;34310;-76
2022/04/08 10:17:23;;;;;;;0.57;0.57;;;8.50;36.60;;;;;;5026907;28;34223;-76
2022/04/08 10:19:49;;;;;;;0.88;0.30;;;8.40;35.70;;;;;;5028094;28;35560;-76
2022/04/08 10:22:17;;;;;;;2.78;0.55;;;8.40;35.50;;;;;;5062153;28;34185;-76
2022/04/08 10:24:58;;;;;;;4.07;0.68;;;8.40;35.80;;;;;;5045101;28;34398;-77
2022/04/08 10:27:30;;;;;;;0.88;0.50;;;8.40;37.70;;;;;;5062156;28;34252;-77
2022/04/08 10:29:57;;;;;;;0.50;0.50;;;8.30;36.60;;;;;;5045073;28;35836;-77
2022/04/08 10:32:23;;;;;;;0.82;0.60;;;8.30;36.20;;;;;;5044991;28;34258;-76
2022/04/08 10:34:52;;;;;;;0.65;0.40;;;8.20;36.00;;;;;;5045157;28;34339;-76
2022/04/08 10:37:22;;;;;;;0.95;0.40;;;8.20;36.00;;;;;;5045039;28;34178;-76
2022/04/08 10:39:57;;;;;;;0.50;0.50;;;8.20;36.20;;;;;;5044515;28;36261;-77
2022/04/08 10:42:24;;;;;;;0.43;0.43;;;8.20;37.00;;;;;;5030691;28;34318;-77
2022/04/08 10:44:58;;;;;;;0.57;0.50;;;8.20;36.10;;;;;;5055208;27;34277;-76
2022/04/08 10:47:24;;;;;;;2.88;0.40;;;8.10;36.30;;;;;;5090870;27;34444;-76
2022/04/08 10:49:57;;;;;;;0.50;0.50;;;8.10;36.20;;;;;;5089465;27;35756;-76
2022/04/08 10:52:26;;;;;;;0.32;0.32;;;8.00;36.00;;;;;;5106577;27;34306;-76
2022/04/08 10:55:08;;;;;;;0.30;0.30;;;8.00;36.00;;;;;;5100839;27;34205;-76
2022/04/08 10:57:39;;;;;;;0.55;0.30;;;8.00;36.60;;;;;;5079475;28;34367;-76
2022/04/08 11:00:08;;;;;;;0.30;0.30;;;8.00;36.20;;;;;;5085508;28;35754;-76
2022/04/08 11:02:37;;;;;;;0.40;0.40;;;8.00;36.20;;;;;;5084163;27;34219;-76
2022/04/08 11:05:05;;;;;;;0.40;0.40;;;8.00;36.20;;;;;;5086632;27;34626;-77
2022/04/08 11:07:32;;;;;;;0.35;0.35;;;8.10;36.20;;;;;;5095192;28;34238;-77
2022/04/08 11:09:59;;;;;;;0.45;0.40;;;8.00;36.00;;;;;;5102862;28;36113;-77
2022/04/08 11:12:28;;;;;;;0.40;0.40;;;8.00;35.90;;;;;;5102902;28;34248;-77
2022/04/08 11:14:58;;;;;;;0.40;0.40;;;7.90;35.70;;;;;;5106866;27;34129;-76
2022/04/08 11:17:39;;;;;;;0.57;0.30;;;7.90;35.80;;;;;;5073407;27;34091;-76
2022/04/08 11:20:09;;;;;;;0.30;0.30;;;7.90;35.50;;;;;;5108459;27;35337;-77
2022/04/08 11:22:44;;;;;;;0.25;0.25;;;7.90;35.40;;;;;;5124629;27;34225;-76
2022/04/08 11:25:18;;;;;;;0.25;0.25;;;7.90;36.00;;;;;;5106217;27;34221;-75
2022/04/08 11:27:44;;;;;;;0.28;0.28;;;7.80;35.70;;;;;;5106334;27;34165;-76
2022/04/08 11:30:10;;;;;;;0.20;0.20;;;7.80;36.10;;;;;;5105895;27;35555;-76
2022/04/08 11:32:39;;;;;;;0.30;0.30;;;7.70;35.90;;;;;;5105608;27;34342;-76
2022/04/08 11:35:13;;;;;;;0.30;0.30;;;7.70;35.90;;;;;;5089435;27;34169;-76
2022/04/08 11:37:39;;;;;;;0.28;0.28;;;7.60;37.20;;;;;;5105850;27;34089;-76
2022/04/08 11:40:07;;;;;;;0.17;0.17;;;7.50;36.20;;;;;;5123933;27;34403;-76
2022/04/08 11:42:33;;;;;;;0.93;0.20;;;7.50;36.20;;;;;;5106357;27;34204;-76
2022/04/08 11:45:00;;;;;;;0.73;0.30;;;7.40;36.00;;;;;;5124406;27;34298;-76
2022/04/08 11:47:31;;;;;;;0.20;0.20;;;7.30;36.00;;;;;;5123202;27;34668;-76
2022/04/08 11:50:04;;;;;;;0.30;0.30;;;7.30;35.80;;;;;;5122977;27;36061;-76
2022/04/08 11:52:30;;;;;;;0.20;0.20;;;7.20;36.10;;;;;;5124195;27;34224;-75
2022/04/08 11:55:03;;;;;;;0.20;0.20;;;7.20;35.90;;;;;;5122556;27;34150;-76
2022/04/08 11:57:31;;;;;;;0.32;0.30;;;7.20;36.40;;;;;;5126582;27;34389;-76
2022/04/08 11:59:57;;;;;;;0.30;0.30;;;7.10;35.90;;;;;;5127820;27;34917;-76
2022/04/08 12:02:24;;;;;;;1.27;0.50;;;6.90;36.00;;;;;;5126566;27;34283;-76
2022/04/08 12:04:51;;;;;;;0.22;0.22;;;6.90;36.30;;;;;;5127521;27;34138;-76
2022/04/08 12:07:23;;;;;;;0.13;0.13;;;6.90;36.30;;;;;;5111964;27;34095;-77
2022/04/08 12:09:51;;;;;;;0.30;0.30;;;6.90;36.90;;;;;;5127206;27;34669;-77
2022/04/08 12:12:29;;;;;;;0.30;0.30;;;6.80;36.60;;;;;;5109176;27;34270;-76
2022/04/08 12:14:55;;;;;;;0.20;0.20;;;6.80;37.10;;;;;;5108941;27;34241;-76
2022/04/08 12:17:22;;;;;;;0.20;0.20;;;6.80;36.10;;;;;;5109231;27;34179;-76
2022/04/08 12:19:52;;;;;;;0.32;0.28;;;6.70;36.10;;;;;;5108961;27;35474;-75
2022/04/08 12:22:19;;;;;;;0.20;0.20;;;6.70;36.30;;;;;;5109245;27;34391;-76
2022/04/08 12:24:48;;;;;;;0.15;0.15;;;6.70;35.80;;;;;;5092198;27;34297;-76
2022/04/08 12:27:19;;;;;;;0.70;0.20;;;6.80;35.70;;;;;;5127187;27;34178;-76
2022/04/08 12:29:56;;;;;;;0.38;0.38;;;6.80;35.60;;;;;;5108646;27;36442;-75
2022/04/08 12:32:24;;;;;;;0.50;0.50;;;6.70;35.60;;;;;;5108737;27;34231;-76
2022/04/08 12:34:50;;;;;;;0.52;0.50;;;6.70;35.50;;;;;;5109211;27;34297;-75
2022/04/08 12:37:16;;;;;;;0.38;0.30;;;6.70;35.90;;;;;;5108949;27;34172;-76
2022/04/08 12:39:42;;;;;;;0.40;0.40;;;6.70;36.00;;;;;;5091604;27;35575;-75
2022/04/08 12:42:08;;;;;;;0.30;0.30;;;6.70;36.00;;;;;;5127187;27;34078;-76
2022/04/08 12:44:34;;;;;;;0.20;0.20;;;6.80;35.70;;;;;;5108580;27;34156;-76
2022/04/08 12:47:00;;;;;;;0.47;0.30;;;6.80;35.80;;;;;;5091456;27;34045;-76
2022/04/08 12:49:26;;;;;;;0.28;0.28;;;6.70;35.60;;;;;;5108334;27;35533;-75
2022/04/08 12:51:52;;;;;;;0.40;0.40;;;6.70;35.60;;;;;;5108605;27;34122;-76
2022/04/08 12:54:18;;;;;;;0.20;0.20;;;6.80;36.00;;;;;;5091810;27;34155;-76
2022/04/08 12:56:44;;;;;;;0.30;0.30;;;6.80;35.60;;;;;;5127016;27;34197;-76
2022/04/08 12:59:11;;;;;;;0.30;0.30;;;6.80;35.40;;;;;;5126415;27;34862;-76
2022/04/08 13:01:37;;;;;;;0.35;0.35;;;6.80;35.50;;;;;;5108398;27;34035;-76